sensor_id;sensor_type;location;lat;lon;timestamp;temperature;humidity
28010;DHT22;15334;49.494;8.410;2023-07-30T00:00:12;19.70;99.90
28010;DHT22;15334;49.494;8.410;2023-07-30T00:02:40;19.70;99.90
28010;DHT22;15334;49.494;8.410;2023-07-30T00:05:08;19.70;99.90
28010;DHT22;15334;49.494;8.410;2023-07-30T00:07:36;19.70;99.90
28010;DHT22;15334;49.494;8.410;2023-07-30T00:10:05;19.70;99.90
28010;DHT22;15334;49.494;8.410;2023-07-30T00:12:35;19.70;99.90
28010;DHT22;15334;49.494;8.410;2023-07-30T00:15:04;19.70;99.90
28010;DHT22;15334;49.494;8.410;2023-07-30T00:17:32;19.80;99.90
28010;DHT22;15334;49.494;8.410;2023-07-30T00:20:00;19.80;99.90
28010;DHT22;15334;49.494;8.410;2023-07-30T00:22:28;19.80;99.90
28010;DHT22;15334;49.494;8.410;2023-07-30T00:24:56;19.80;99.90
28010;DHT22;15334;49.494;8.410;2023-07-30T00:27:24;19.80;99.90
28010;DHT22;15334;49.494;8.410;2023-07-30T00:29:53;19.80;99.90
28010;DHT22;15334;49.494;8.410;2023-07-30T00:32:21;19.60;99.90
28010;DHT22;15334;49.494;8.410;2023-07-30T00:34:49;19.50;99.90
28010;DHT22;15334;49.494;8.410;2023-07-30T00:37:19;19.50;99.90
28010;DHT22;15334;49.494;8.410;2023-07-30T00:39:47;19.50;99.90
28010;DHT22;15334;49.494;8.410;2023-07-30T00:42:15;19.50;99.90
28010;DHT22;15334;49.494;8.410;2023-07-30T00:44:43;19.60;99.90
28010;DHT22;15334;49.494;8.410;2023-07-30T00:47:13;19.60;99.90
28010;DHT22;15334;49.494;8.410;2023-07-30T00:49:41;19.60;99.90
28010;DHT22;15334;49.494;8.410;2023-07-30T00:52:09;19.60;99.90
28010;DHT22;15334;49.494;8.410;2023-07-30T00:54:39;19.60;99.90
28010;DHT22;15334;49.494;8.410;2023-07-30T00:57:07;19.70;99.90
28010;DHT22;15334;49.494;8.410;2023-07-30T00:59:37;19.60;99.90
28010;DHT22;15334;49.494;8.410;2023-07-30T01:02:05;19.70;99.90
28010;DHT22;15334;49.494;8.410;2023-07-30T01:04:36;19.70;99.90
28010;DHT22;15334;49.494;8.410;2023-07-30T01:07:04;19.70;99.90
28010;DHT22;15334;49.494;8.410;2023-07-30T01:09:32;19.70;99.90
28010;DHT22;15334;49.494;8.410;2023-07-30T01:12:02;19.70;99.90
28010;DHT22;15334;49.494;8.410;2023-07-30T01:14:32;19.70;99.90
28010;DHT22;15334;49.494;8.410;2023-07-30T01:17:00;19.70;99.90
28010;DHT22;15334;49.494;8.410;2023-07-30T01:19:28;19.80;99.90
28010;DHT22;15334;49.494;8.410;2023-07-30T01:21:58;19.70;99.90
28010;DHT22;15334;49.494;8.410;2023-07-30T01:24:26;19.70;99.90
28010;DHT22;15334;49.494;8.410;2023-07-30T01:26:59;19.70;99.90
28010;DHT22;15334;49.494;8.410;2023-07-30T01:29:36;19.70;99.90
28010;DHT22;15334;49.494;8.410;2023-07-30T01:32:08;19.70;99.90
28010;DHT22;15334;49.494;8.410;2023-07-30T01:34:39;19.60;99.90
28010;DHT22;15334;49.494;8.410;2023-07-30T01:37:11;19.60;99.90
28010;DHT22;15334;49.494;8.410;2023-07-30T01:39:40;19.60;99.90
28010;DHT22;15334;49.494;8.410;2023-07-30T01:42:12;19.50;99.90
28010;DHT22;15334;49.494;8.410;2023-07-30T01:44:40;19.50;99.90
28010;DHT22;15334;49.494;8.410;2023-07-30T01:47:08;19.60;99.90
28010;DHT22;15334;49.494;8.410;2023-07-30T01:49:36;19.60;99.90
28010;DHT22;15334;49.494;8.410;2023-07-30T01:52:04;19.60;99.90
28010;DHT22;15334;49.494;8.410;2023-07-30T01:54:34;19.60;99.90
28010;DHT22;15334;49.494;8.410;2023-07-30T01:57:02;19.70;99.90
28010;DHT22;15334;49.494;8.410;2023-07-30T01:59:30;19.70;99.90
28010;DHT22;15334;49.494;8.410;2023-07-30T02:01:58;19.70;99.90
28010;DHT22;15334;49.494;8.410;2023-07-30T02:04:26;19.70;99.90
28010;DHT22;15334;49.494;8.410;2023-07-30T02:06:54;19.70;99.90
28010;DHT22;15334;49.494;8.410;2023-07-30T02:09:22;19.60;99.90
28010;DHT22;15334;49.494;8.410;2023-07-30T02:11:52;19.50;99.90
28010;DHT22;15334;49.494;8.410;2023-07-30T02:14:20;19.50;99.90
28010;DHT22;15334;49.494;8.410;2023-07-30T02:16:48;19.50;99.90
28010;DHT22;15334;49.494;8.410;2023-07-30T02:19:16;19.60;99.90
28010;DHT22;15334;49.494;8.410;2023-07-30T02:21:44;19.60;99.90
28010;DHT22;15334;49.494;8.410;2023-07-30T02:24:12;19.60;99.90
28010;DHT22;15334;49.494;8.410;2023-07-30T02:26:40;19.60;99.90
28010;DHT22;15334;49.494;8.410;2023-07-30T02:29:09;19.60;99.90
28010;DHT22;15334;49.494;8.410;2023-07-30T02:31:37;19.60;99.90
28010;DHT22;15334;49.494;8.410;2023-07-30T02:34:05;19.50;99.90
28010;DHT22;15334;49.494;8.410;2023-07-30T02:36:34;19.50;99.90
28010;DHT22;15334;49.494;8.410;2023-07-30T02:39:02;19.50;99.90
28010;DHT22;15334;49.494;8.410;2023-07-30T02:41:30;19.40;99.90
28010;DHT22;15334;49.494;8.410;2023-07-30T02:43:59;19.40;99.90
28010;DHT22;15334;49.494;8.410;2023-07-30T02:46:28;19.40;99.90
28010;DHT22;15334;49.494;8.410;2023-07-30T02:48:56;19.40;99.90
28010;DHT22;15334;49.494;8.410;2023-07-30T02:51:24;19.40;99.90
28010;DHT22;15334;49.494;8.410;2023-07-30T02:53:52;19.40;99.90
28010;DHT22;15334;49.494;8.410;2023-07-30T02:56:23;19.40;99.90
28010;DHT22;15334;49.494;8.410;2023-07-30T02:58:51;19.50;99.90
28010;DHT22;15334;49.494;8.410;2023-07-30T03:01:19;19.50;99.90
28010;DHT22;15334;49.494;8.410;2023-07-30T03:03:48;19.50;99.90
28010;DHT22;15334;49.494;8.410;2023-07-30T03:12:32;19.60;99.90
28010;DHT22;15334;49.494;8.410;2023-07-30T03:15:00;19.60;99.90
28010;DHT22;15334;49.494;8.410;2023-07-30T03:17:28;19.50;99.90
28010;DHT22;15334;49.494;8.410;2023-07-30T03:19:57;19.40;99.90
28010;DHT22;15334;49.494;8.410;2023-07-30T03:22:25;19.40;99.90
28010;DHT22;15334;49.494;8.410;2023-07-30T03:24:54;19.50;99.90
28010;DHT22;15334;49.494;8.410;2023-07-30T03:27:22;19.40;99.90
28010;DHT22;15334;49.494;8.410;2023-07-30T03:29:50;19.50;99.90
28010;DHT22;15334;49.494;8.410;2023-07-30T03:32:18;19.50;99.90
28010;DHT22;15334;49.494;8.410;2023-07-30T03:34:46;19.40;99.90
28010;DHT22;15334;49.494;8.410;2023-07-30T03:37:16;19.40;99.90
28010;DHT22;15334;49.494;8.410;2023-07-30T03:39:44;19.40;99.90
28010;DHT22;15334;49.494;8.410;2023-07-30T03:42:12;19.40;99.90
28010;DHT22;15334;49.494;8.410;2023-07-30T03:44:40;19.40;99.90
28010;DHT22;15334;49.494;8.410;2023-07-30T03:47:08;19.40;99.90
28010;DHT22;15334;49.494;8.410;2023-07-30T03:49:36;19.40;99.90
28010;DHT22;15334;49.494;8.410;2023-07-30T03:52:04;19.40;99.90
28010;DHT22;15334;49.494;8.410;2023-07-30T03:54:33;19.40;99.90
28010;DHT22;15334;49.494;8.410;2023-07-30T03:57:01;19.40;99.90
28010;DHT22;15334;49.494;8.410;2023-07-30T03:59:30;19.40;99.90
28010;DHT22;15334;49.494;8.410;2023-07-30T04:01:58;19.40;99.90
28010;DHT22;15334;49.494;8.410;2023-07-30T04:04:26;19.40;99.90
28010;DHT22;15334;49.494;8.410;2023-07-30T04:06:54;19.40;99.90
28010;DHT22;15334;49.494;8.410;2023-07-30T04:09:22;19.40;99.90
28010;DHT22;15334;49.494;8.410;2023-07-30T04:11:51;19.30;99.90
28010;DHT22;15334;49.494;8.410;2023-07-30T04:14:19;19.40;99.90
28010;DHT22;15334;49.494;8.410;2023-07-30T04:16:47;19.40;99.90
28010;DHT22;15334;49.494;8.410;2023-07-30T04:19:16;19.40;99.90
28010;DHT22;15334;49.494;8.410;2023-07-30T04:21:43;19.40;99.90
28010;DHT22;15334;49.494;8.410;2023-07-30T04:24:12;19.40;99.90
28010;DHT22;15334;49.494;8.410;2023-07-30T04:26:40;19.40;99.90
28010;DHT22;15334;49.494;8.410;2023-07-30T04:29:09;19.40;99.90
28010;DHT22;15334;49.494;8.410;2023-07-30T04:31:37;19.40;99.90
28010;DHT22;15334;49.494;8.410;2023-07-30T04:34:06;19.40;99.90
28010;DHT22;15334;49.494;8.410;2023-07-30T04:36:34;19.40;99.90
28010;DHT22;15334;49.494;8.410;2023-07-30T04:39:02;19.40;99.90
28010;DHT22;15334;49.494;8.410;2023-07-30T04:41:30;19.40;99.90
28010;DHT22;15334;49.494;8.410;2023-07-30T04:44:02;19.40;99.90
28010;DHT22;15334;49.494;8.410;2023-07-30T04:46:32;19.50;99.90
28010;DHT22;15334;49.494;8.410;2023-07-30T04:49:02;19.50;99.90
28010;DHT22;15334;49.494;8.410;2023-07-30T04:51:30;19.50;99.90
28010;DHT22;15334;49.494;8.410;2023-07-30T04:53:58;19.50;99.90
28010;DHT22;15334;49.494;8.410;2023-07-30T04:56:26;19.50;99.90
28010;DHT22;15334;49.494;8.410;2023-07-30T04:58:54;19.50;99.90
28010;DHT22;15334;49.494;8.410;2023-07-30T05:01:24;19.50;99.90
28010;DHT22;15334;49.494;8.410;2023-07-30T05:03:53;19.40;99.90
28010;DHT22;15334;49.494;8.410;2023-07-30T05:06:22;19.50;99.90
28010;DHT22;15334;49.494;8.410;2023-07-30T05:08:50;19.50;99.90
28010;DHT22;15334;49.494;8.410;2023-07-30T05:11:18;19.40;99.90
28010;DHT22;15334;49.494;8.410;2023-07-30T05:13:46;19.40;99.90
28010;DHT22;15334;49.494;8.410;2023-07-30T05:16:14;19.40;99.90
28010;DHT22;15334;49.494;8.410;2023-07-30T05:18:43;19.50;99.90
28010;DHT22;15334;49.494;8.410;2023-07-30T05:21:13;19.50;99.90
28010;DHT22;15334;49.494;8.410;2023-07-30T05:23:41;19.50;99.90
28010;DHT22;15334;49.494;8.410;2023-07-30T05:26:09;19.60;99.90
28010;DHT22;15334;49.494;8.410;2023-07-30T05:28:37;19.60;99.90
28010;DHT22;15334;49.494;8.410;2023-07-30T05:31:05;19.60;99.90
28010;DHT22;15334;49.494;8.410;2023-07-30T05:33:33;19.70;99.90
28010;DHT22;15334;49.494;8.410;2023-07-30T05:36:01;19.70;99.90
28010;DHT22;15334;49.494;8.410;2023-07-30T05:38:30;19.80;99.90
28010;DHT22;15334;49.494;8.410;2023-07-30T05:40:58;19.80;99.90
28010;DHT22;15334;49.494;8.410;2023-07-30T05:43:26;19.90;99.90
28010;DHT22;15334;49.494;8.410;2023-07-30T05:45:54;19.90;99.90
28010;DHT22;15334;49.494;8.410;2023-07-30T05:48:22;19.90;99.90
28010;DHT22;15334;49.494;8.410;2023-07-30T05:50:50;20.00;99.90
28010;DHT22;15334;49.494;8.410;2023-07-30T05:53:18;20.00;99.90
28010;DHT22;15334;49.494;8.410;2023-07-30T05:55:48;20.00;99.90
28010;DHT22;15334;49.494;8.410;2023-07-30T05:58:16;20.10;99.90
28010;DHT22;15334;49.494;8.410;2023-07-30T06:00:44;20.10;99.90
28010;DHT22;15334;49.494;8.410;2023-07-30T06:03:12;20.10;99.90
28010;DHT22;15334;49.494;8.410;2023-07-30T06:05:41;20.20;99.90
28010;DHT22;15334;49.494;8.410;2023-07-30T06:08:09;20.20;99.90
28010;DHT22;15334;49.494;8.410;2023-07-30T06:10:38;20.30;99.90
28010;DHT22;15334;49.494;8.410;2023-07-30T06:13:08;20.20;99.90
28010;DHT22;15334;49.494;8.410;2023-07-30T06:15:36;20.20;99.90
28010;DHT22;15334;49.494;8.410;2023-07-30T06:18:05;20.30;99.90
28010;DHT22;15334;49.494;8.410;2023-07-30T06:20:33;20.30;99.90
28010;DHT22;15334;49.494;8.410;2023-07-30T06:23:01;20.40;99.90
28010;DHT22;15334;49.494;8.410;2023-07-30T06:25:31;20.50;99.90
28010;DHT22;15334;49.494;8.410;2023-07-30T06:27:59;20.50;99.90
28010;DHT22;15334;49.494;8.410;2023-07-30T06:30:28;20.60;99.90
28010;DHT22;15334;49.494;8.410;2023-07-30T06:32:56;20.70;99.90
28010;DHT22;15334;49.494;8.410;2023-07-30T06:35:24;20.70;99.90
28010;DHT22;15334;49.494;8.410;2023-07-30T06:37:52;20.70;99.90
28010;DHT22;15334;49.494;8.410;2023-07-30T06:40:20;20.70;99.90
28010;DHT22;15334;49.494;8.410;2023-07-30T06:42:48;20.80;99.90
28010;DHT22;15334;49.494;8.410;2023-07-30T06:45:16;20.80;99.90
28010;DHT22;15334;49.494;8.410;2023-07-30T06:47:46;20.80;99.90
28010;DHT22;15334;49.494;8.410;2023-07-30T06:50:14;20.80;99.90
28010;DHT22;15334;49.494;8.410;2023-07-30T06:52:42;20.90;99.90
28010;DHT22;15334;49.494;8.410;2023-07-30T06:55:10;20.90;99.90
28010;DHT22;15334;49.494;8.410;2023-07-30T06:57:38;21.00;99.90
28010;DHT22;15334;49.494;8.410;2023-07-30T07:00:07;21.10;99.90
28010;DHT22;15334;49.494;8.410;2023-07-30T07:02:35;21.20;99.90
28010;DHT22;15334;49.494;8.410;2023-07-30T07:05:08;21.30;99.90
28010;DHT22;15334;49.494;8.410;2023-07-30T07:07:42;21.30;99.90
28010;DHT22;15334;49.494;8.410;2023-07-30T07:10:11;21.40;99.90
28010;DHT22;15334;49.494;8.410;2023-07-30T07:12:42;21.40;99.90
28010;DHT22;15334;49.494;8.410;2023-07-30T07:15:13;21.50;99.90
28010;DHT22;15334;49.494;8.410;2023-07-30T07:17:46;21.50;99.90
28010;DHT22;15334;49.494;8.410;2023-07-30T07:20:16;21.50;99.90
28010;DHT22;15334;49.494;8.410;2023-07-30T07:22:45;21.40;99.90
28010;DHT22;15334;49.494;8.410;2023-07-30T07:25:13;21.40;99.90
28010;DHT22;15334;49.494;8.410;2023-07-30T07:27:50;21.30;99.90
28010;DHT22;15334;49.494;8.410;2023-07-30T07:30:18;21.20;99.90
28010;DHT22;15334;49.494;8.410;2023-07-30T07:32:46;21.10;99.90
28010;DHT22;15334;49.494;8.410;2023-07-30T07:35:20;21.10;99.90
28010;DHT22;15334;49.494;8.410;2023-07-30T07:37:50;21.10;99.90
28010;DHT22;15334;49.494;8.410;2023-07-30T07:40:18;21.10;99.90
28010;DHT22;15334;49.494;8.410;2023-07-30T07:42:46;21.10;99.90
28010;DHT22;15334;49.494;8.410;2023-07-30T07:45:14;21.00;99.90
28010;DHT22;15334;49.494;8.410;2023-07-30T07:47:43;21.00;99.90
28010;DHT22;15334;49.494;8.410;2023-07-30T07:50:11;21.00;99.90
28010;DHT22;15334;49.494;8.410;2023-07-30T07:52:40;21.00;99.90
28010;DHT22;15334;49.494;8.410;2023-07-30T07:55:08;21.00;99.90
28010;DHT22;15334;49.494;8.410;2023-07-30T07:57:36;21.20;99.90
28010;DHT22;15334;49.494;8.410;2023-07-30T08:00:06;21.30;99.90
28010;DHT22;15334;49.494;8.410;2023-07-30T08:02:35;21.40;99.90
28010;DHT22;15334;49.494;8.410;2023-07-30T08:05:03;21.60;99.90
28010;DHT22;15334;49.494;8.410;2023-07-30T08:07:32;21.70;99.90
28010;DHT22;15334;49.494;8.410;2023-07-30T08:10:02;21.80;99.90
28010;DHT22;15334;49.494;8.410;2023-07-30T08:12:31;21.90;99.90
28010;DHT22;15334;49.494;8.410;2023-07-30T08:15:00;22.00;99.90
28010;DHT22;15334;49.494;8.410;2023-07-30T08:17:28;22.10;99.90
28010;DHT22;15334;49.494;8.410;2023-07-30T08:19:56;22.20;99.90
28010;DHT22;15334;49.494;8.410;2023-07-30T08:22:24;22.30;99.90
28010;DHT22;15334;49.494;8.410;2023-07-30T08:24:52;22.30;99.90
28010;DHT22;15334;49.494;8.410;2023-07-30T08:27:21;22.30;99.90
28010;DHT22;15334;49.494;8.410;2023-07-30T08:29:49;22.20;99.90
28010;DHT22;15334;49.494;8.410;2023-07-30T08:32:17;22.10;99.90
28010;DHT22;15334;49.494;8.410;2023-07-30T08:34:46;22.10;99.90
28010;DHT22;15334;49.494;8.410;2023-07-30T08:37:14;22.10;99.90
28010;DHT22;15334;49.494;8.410;2023-07-30T08:39:42;22.10;99.90
28010;DHT22;15334;49.494;8.410;2023-07-30T08:42:29;22.20;99.90
28010;DHT22;15334;49.494;8.410;2023-07-30T08:44:57;22.30;99.90
28010;DHT22;15334;49.494;8.410;2023-07-30T08:47:25;22.40;99.90
28010;DHT22;15334;49.494;8.410;2023-07-30T08:49:54;22.50;99.90
28010;DHT22;15334;49.494;8.410;2023-07-30T08:52:22;22.60;99.90
28010;DHT22;15334;49.494;8.410;2023-07-30T08:54:51;22.60;99.90
28010;DHT22;15334;49.494;8.410;2023-07-30T08:57:20;22.60;99.90
28010;DHT22;15334;49.494;8.410;2023-07-30T08:59:57;22.70;99.90
28010;DHT22;15334;49.494;8.410;2023-07-30T09:02:31;22.80;99.90
28010;DHT22;15334;49.494;8.410;2023-07-30T09:05:01;22.80;99.90
28010;DHT22;15334;49.494;8.410;2023-07-30T09:07:30;22.80;99.90
28010;DHT22;15334;49.494;8.410;2023-07-30T09:09:58;22.80;99.90
28010;DHT22;15334;49.494;8.410;2023-07-30T09:12:28;22.90;99.90
28010;DHT22;15334;49.494;8.410;2023-07-30T09:14:58;22.90;99.90
28010;DHT22;15334;49.494;8.410;2023-07-30T09:17:26;23.00;99.90
28010;DHT22;15334;49.494;8.410;2023-07-30T09:19:54;23.10;99.90
28010;DHT22;15334;49.494;8.410;2023-07-30T09:22:25;23.00;99.90
28010;DHT22;15334;49.494;8.410;2023-07-30T09:24:54;23.00;99.90
28010;DHT22;15334;49.494;8.410;2023-07-30T09:27:23;22.90;99.90
28010;DHT22;15334;49.494;8.410;2023-07-30T09:29:54;22.90;99.90
28010;DHT22;15334;49.494;8.410;2023-07-30T09:32:27;22.80;99.90
28010;DHT22;15334;49.494;8.410;2023-07-30T09:34:55;22.80;99.90
28010;DHT22;15334;49.494;8.410;2023-07-30T09:37:24;22.80;99.90
28010;DHT22;15334;49.494;8.410;2023-07-30T09:39:52;22.90;99.90
28010;DHT22;15334;49.494;8.410;2023-07-30T09:42:20;23.10;99.90
28010;DHT22;15334;49.494;8.410;2023-07-30T09:44:48;23.30;99.90
28010;DHT22;15334;49.494;8.410;2023-07-30T09:47:16;23.50;99.90
28010;DHT22;15334;49.494;8.410;2023-07-30T09:49:45;23.40;99.90
28010;DHT22;15334;49.494;8.410;2023-07-30T09:52:14;23.40;99.90
28010;DHT22;15334;49.494;8.410;2023-07-30T09:54:42;23.20;99.90
28010;DHT22;15334;49.494;8.410;2023-07-30T09:57:10;23.20;99.90
28010;DHT22;15334;49.494;8.410;2023-07-30T09:59:38;23.10;99.90
28010;DHT22;15334;49.494;8.410;2023-07-30T10:02:07;22.90;99.90
28010;DHT22;15334;49.494;8.410;2023-07-30T10:04:38;22.60;99.90
28010;DHT22;15334;49.494;8.410;2023-07-30T10:07:13;22.40;99.90
28010;DHT22;15334;49.494;8.410;2023-07-30T10:09:43;22.30;99.90
28010;DHT22;15334;49.494;8.410;2023-07-30T10:12:16;22.30;99.90
28010;DHT22;15334;49.494;8.410;2023-07-30T10:14:44;22.20;99.90
28010;DHT22;15334;49.494;8.410;2023-07-30T10:17:12;22.30;99.90
28010;DHT22;15334;49.494;8.410;2023-07-30T10:19:40;22.40;99.90
28010;DHT22;15334;49.494;8.410;2023-07-30T10:22:23;22.50;99.90
28010;DHT22;15334;49.494;8.410;2023-07-30T10:24:57;22.70;99.90
28010;DHT22;15334;49.494;8.410;2023-07-30T10:27:27;22.80;99.90
28010;DHT22;15334;49.494;8.410;2023-07-30T10:30:11;22.90;99.90
28010;DHT22;15334;49.494;8.410;2023-07-30T10:32:42;22.90;99.90
28010;DHT22;15334;49.494;8.410;2023-07-30T10:35:39;22.90;99.90
28010;DHT22;15334;49.494;8.410;2023-07-30T10:38:19;23.00;99.90
28010;DHT22;15334;49.494;8.410;2023-07-30T10:41:02;23.10;99.90
28010;DHT22;15334;49.494;8.410;2023-07-30T10:43:30;23.10;99.90
28010;DHT22;15334;49.494;8.410;2023-07-30T10:45:58;22.90;99.90
28010;DHT22;15334;49.494;8.410;2023-07-30T10:48:31;22.60;99.90
28010;DHT22;15334;49.494;8.410;2023-07-30T10:51:01;22.80;99.90
28010;DHT22;15334;49.494;8.410;2023-07-30T10:53:30;22.90;99.90
28010;DHT22;15334;49.494;8.410;2023-07-30T10:55:59;22.90;99.90
28010;DHT22;15334;49.494;8.410;2023-07-30T10:58:30;22.90;99.90
28010;DHT22;15334;49.494;8.410;2023-07-30T11:00:59;22.80;99.90
28010;DHT22;15334;49.494;8.410;2023-07-30T11:03:29;22.80;99.90
28010;DHT22;15334;49.494;8.410;2023-07-30T11:05:59;22.90;99.90
28010;DHT22;15334;49.494;8.410;2023-07-30T11:08:35;22.90;99.90
28010;DHT22;15334;49.494;8.410;2023-07-30T11:11:04;23.00;99.90
28010;DHT22;15334;49.494;8.410;2023-07-30T11:13:36;23.10;99.90
28010;DHT22;15334;49.494;8.410;2023-07-30T11:16:05;23.10;99.90
28010;DHT22;15334;49.494;8.410;2023-07-30T11:18:34;23.20;99.90
28010;DHT22;15334;49.494;8.410;2023-07-30T11:21:03;23.30;99.90
28010;DHT22;15334;49.494;8.410;2023-07-30T11:23:31;23.40;99.90
28010;DHT22;15334;49.494;8.410;2023-07-30T11:26:02;23.30;99.90
28010;DHT22;15334;49.494;8.410;2023-07-30T11:28:31;23.10;99.90
28010;DHT22;15334;49.494;8.410;2023-07-30T11:31:05;23.00;99.90
28010;DHT22;15334;49.494;8.410;2023-07-30T11:33:34;23.00;99.90
28010;DHT22;15334;49.494;8.410;2023-07-30T11:36:03;23.00;99.90
28010;DHT22;15334;49.494;8.410;2023-07-30T11:38:32;23.10;99.90
28010;DHT22;15334;49.494;8.410;2023-07-30T11:41:01;23.20;99.90
28010;DHT22;15334;49.494;8.410;2023-07-30T11:43:30;23.30;99.90
28010;DHT22;15334;49.494;8.410;2023-07-30T11:46:12;23.30;99.90
28010;DHT22;15334;49.494;8.410;2023-07-30T11:48:42;23.20;99.90
28010;DHT22;15334;49.494;8.410;2023-07-30T11:51:21;23.20;99.90
28010;DHT22;15334;49.494;8.410;2023-07-30T11:53:51;23.20;99.90
28010;DHT22;15334;49.494;8.410;2023-07-30T11:56:22;23.10;99.90
28010;DHT22;15334;49.494;8.410;2023-07-30T11:58:55;23.10;99.90
28010;DHT22;15334;49.494;8.410;2023-07-30T12:01:24;23.00;99.90
28010;DHT22;15334;49.494;8.410;2023-07-30T12:03:56;22.80;99.90
28010;DHT22;15334;49.494;8.410;2023-07-30T12:06:38;22.80;99.90
28010;DHT22;15334;49.494;8.410;2023-07-30T12:09:10;22.90;99.90
28010;DHT22;15334;49.494;8.410;2023-07-30T12:11:48;23.00;99.90
28010;DHT22;15334;49.494;8.410;2023-07-30T12:14:18;22.80;99.90
28010;DHT22;15334;49.494;8.410;2023-07-30T12:16:47;22.80;99.90
28010;DHT22;15334;49.494;8.410;2023-07-30T12:19:15;22.70;99.90
28010;DHT22;15334;49.494;8.410;2023-07-30T12:21:43;22.60;99.90
28010;DHT22;15334;49.494;8.410;2023-07-30T12:24:11;22.60;99.90
28010;DHT22;15334;49.494;8.410;2023-07-30T12:26:39;22.50;99.90
28010;DHT22;15334;49.494;8.410;2023-07-30T12:29:08;22.30;99.90
28010;DHT22;15334;49.494;8.410;2023-07-30T12:31:36;22.30;99.90
28010;DHT22;15334;49.494;8.410;2023-07-30T12:34:05;22.20;99.90
28010;DHT22;15334;49.494;8.410;2023-07-30T12:36:33;22.20;99.90
28010;DHT22;15334;49.494;8.410;2023-07-30T12:39:01;22.30;99.90
28010;DHT22;15334;49.494;8.410;2023-07-30T12:41:30;22.30;99.90
28010;DHT22;15334;49.494;8.410;2023-07-30T12:43:58;22.20;99.90
28010;DHT22;15334;49.494;8.410;2023-07-30T12:46:27;22.30;99.90
28010;DHT22;15334;49.494;8.410;2023-07-30T12:48:57;22.40;99.90
28010;DHT22;15334;49.494;8.410;2023-07-30T12:51:28;22.40;99.90
28010;DHT22;15334;49.494;8.410;2023-07-30T12:53:56;22.40;99.90
28010;DHT22;15334;49.494;8.410;2023-07-30T12:56:24;22.50;99.90
28010;DHT22;15334;49.494;8.410;2023-07-30T12:58:52;22.70;99.90
28010;DHT22;15334;49.494;8.410;2023-07-30T13:01:20;23.00;99.90
28010;DHT22;15334;49.494;8.410;2023-07-30T13:03:51;23.20;99.90
28010;DHT22;15334;49.494;8.410;2023-07-30T13:06:21;23.40;99.90
28010;DHT22;15334;49.494;8.410;2023-07-30T13:08:49;24.00;99.90
28010;DHT22;15334;49.494;8.410;2023-07-30T13:11:17;24.30;99.90
28010;DHT22;15334;49.494;8.410;2023-07-30T13:13:45;24.30;99.90
28010;DHT22;15334;49.494;8.410;2023-07-30T13:16:13;23.90;99.90
28010;DHT22;15334;49.494;8.410;2023-07-30T13:18:41;23.50;99.90
28010;DHT22;15334;49.494;8.410;2023-07-30T13:21:11;23.20;99.90
28010;DHT22;15334;49.494;8.410;2023-07-30T13:23:39;23.10;99.90
28010;DHT22;15334;49.494;8.410;2023-07-30T13:26:07;23.30;99.90
28010;DHT22;15334;49.494;8.410;2023-07-30T13:28:35;23.40;99.90
28010;DHT22;15334;49.494;8.410;2023-07-30T13:31:03;23.30;99.90
28010;DHT22;15334;49.494;8.410;2023-07-30T13:33:31;22.90;99.90
28010;DHT22;15334;49.494;8.410;2023-07-30T13:35:59;22.70;99.90
28010;DHT22;15334;49.494;8.410;2023-07-30T13:38:28;22.60;99.90
28010;DHT22;15334;49.494;8.410;2023-07-30T13:40:57;22.60;99.90
28010;DHT22;15334;49.494;8.410;2023-07-30T13:43:24;22.60;99.90
28010;DHT22;15334;49.494;8.410;2023-07-30T13:45:52;22.70;99.90
28010;DHT22;15334;49.494;8.410;2023-07-30T13:48:20;22.80;99.90
28010;DHT22;15334;49.494;8.410;2023-07-30T13:50:49;23.20;99.90
28010;DHT22;15334;49.494;8.410;2023-07-30T13:53:17;24.10;99.90
28010;DHT22;15334;49.494;8.410;2023-07-30T13:55:46;24.40;99.90
28010;DHT22;15334;49.494;8.410;2023-07-30T13:58:14;24.30;99.90
28010;DHT22;15334;49.494;8.410;2023-07-30T14:00:43;24.10;99.90
28010;DHT22;15334;49.494;8.410;2023-07-30T14:03:11;23.90;99.90
28010;DHT22;15334;49.494;8.410;2023-07-30T14:05:40;23.80;99.90
28010;DHT22;15334;49.494;8.410;2023-07-30T14:08:08;23.60;99.90
28010;DHT22;15334;49.494;8.410;2023-07-30T14:10:36;23.50;99.90
28010;DHT22;15334;49.494;8.410;2023-07-30T14:13:05;23.80;99.90
28010;DHT22;15334;49.494;8.410;2023-07-30T14:15:33;23.80;99.90
28010;DHT22;15334;49.494;8.410;2023-07-30T14:18:01;23.60;99.90
28010;DHT22;15334;49.494;8.410;2023-07-30T14:20:29;23.90;99.90
28010;DHT22;15334;49.494;8.410;2023-07-30T14:22:57;24.30;99.90
28010;DHT22;15334;49.494;8.410;2023-07-30T14:25:27;24.30;99.80
28010;DHT22;15334;49.494;8.410;2023-07-30T14:27:55;24.20;99.60
28010;DHT22;15334;49.494;8.410;2023-07-30T14:30:25;24.00;99.90
28010;DHT22;15334;49.494;8.410;2023-07-30T14:32:52;23.90;99.90
28010;DHT22;15334;49.494;8.410;2023-07-30T14:35:21;23.90;99.90
28010;DHT22;15334;49.494;8.410;2023-07-30T14:37:49;23.80;99.90
28010;DHT22;15334;49.494;8.410;2023-07-30T14:40:17;23.80;99.90
28010;DHT22;15334;49.494;8.410;2023-07-30T14:42:45;23.90;99.90
28010;DHT22;15334;49.494;8.410;2023-07-30T14:45:13;24.00;99.90
28010;DHT22;15334;49.494;8.410;2023-07-30T14:47:43;24.20;98.80
28010;DHT22;15334;49.494;8.410;2023-07-30T14:53:17;24.00;99.20
28010;DHT22;15334;49.494;8.410;2023-07-30T14:55:45;24.00;98.90
28010;DHT22;15334;49.494;8.410;2023-07-30T14:58:13;23.80;99.00
28010;DHT22;15334;49.494;8.410;2023-07-30T15:00:41;23.80;99.90
28010;DHT22;15334;49.494;8.410;2023-07-30T15:03:11;23.90;98.70
28010;DHT22;15334;49.494;8.410;2023-07-30T15:05:40;24.00;99.20
28010;DHT22;15334;49.494;8.410;2023-07-30T15:08:08;23.90;98.70
28010;DHT22;15334;49.494;8.410;2023-07-30T15:10:36;23.80;98.80
28010;DHT22;15334;49.494;8.410;2023-07-30T15:13:04;23.70;99.10
28010;DHT22;15334;49.494;8.410;2023-07-30T15:15:32;23.70;99.90
28010;DHT22;15334;49.494;8.410;2023-07-30T15:18:00;23.60;98.10
28010;DHT22;15334;49.494;8.410;2023-07-30T15:20:29;23.60;98.30
28010;DHT22;15334;49.494;8.410;2023-07-30T15:22:57;23.60;99.00
28010;DHT22;15334;49.494;8.410;2023-07-30T15:25:25;23.50;99.10
28010;DHT22;15334;49.494;8.410;2023-07-30T15:27:54;23.40;99.90
28010;DHT22;15334;49.494;8.410;2023-07-30T15:30:23;23.50;99.90
28010;DHT22;15334;49.494;8.410;2023-07-30T15:32:52;23.50;99.60
28010;DHT22;15334;49.494;8.410;2023-07-30T15:35:20;23.50;99.60
28010;DHT22;15334;49.494;8.410;2023-07-30T15:37:49;23.50;99.70
28010;DHT22;15334;49.494;8.410;2023-07-30T15:40:18;23.50;99.30
28010;DHT22;15334;49.494;8.410;2023-07-30T15:42:46;23.50;99.90
28010;DHT22;15334;49.494;8.410;2023-07-30T15:45:14;23.50;99.70
28010;DHT22;15334;49.494;8.410;2023-07-30T15:47:42;23.60;99.00
28010;DHT22;15334;49.494;8.410;2023-07-30T15:50:11;23.60;98.80